Time;durP1;ratioP1;P1;durP2;ratioP2;P2;SDS_P1;SDS_P2;PMS_P1;PMS_P2;Temp;Humidity;BMP_temperature;BMP_pressure;BME280_temperature;BME280_humidity;BME280_pressure;Samples;Min_cycle;Max_cycle;Signal;HPM_P1;HPM_P2
2022/04/29 00:01:04;;;;;;;3.10;1.35;;;17.80;84.20;;;;;;5057607;28;20045;-80
2022/04/29 00:03:32;;;;;;;2.38;1.20;;;17.80;84.20;;;;;;5072817;28;20044;-80
2022/04/29 00:06:00;;;;;;;2.10;1.20;;;17.70;84.00;;;;;;5075807;28;20059;-80
2022/04/29 00:08:28;;;;;;;3.70;1.30;;;17.70;84.20;;;;;;5071556;28;20148;-81
2022/04/29 00:10:56;;;;;;;2.90;1.27;;;17.70;83.90;;;;;;5049245;28;20119;-80
2022/04/29 00:13:25;;;;;;;1.63;1.00;;;17.70;84.00;;;;;;5051731;28;20046;-80
2022/04/29 00:15:53;;;;;;;3.20;1.17;;;17.80;84.20;;;;;;5059721;28;20191;-80
2022/04/29 00:18:22;;;;;;;2.83;1.33;;;17.70;84.60;;;;;;5057861;28;20548;-80
2022/04/29 00:20:51;;;;;;;3.85;1.13;;;17.70;84.40;;;;;;5069782;28;20041;-80
2022/04/29 00:23:19;;;;;;;1.88;1.30;;;17.70;84.80;;;;;;5052621;28;20048;-79
2022/04/29 00:25:48;;;;;;;2.65;1.20;;;17.70;84.80;;;;;;5047109;28;20395;-80
2022/04/29 00:28:16;;;;;;;1.63;1.15;;;17.60;84.60;;;;;;5052671;28;20048;-80
2022/04/29 00:30:44;;;;;;;3.65;1.20;;;17.60;84.80;;;;;;5054423;28;20084;-81
2022/04/29 00:33:12;;;;;;;1.35;1.13;;;17.60;85.00;;;;;;5062716;28;20040;-80
2022/04/29 00:35:42;;;;;;;1.73;1.00;;;17.60;85.30;;;;;;5074028;28;20105;-80
2022/04/29 00:38:15;;;;;;;1.70;1.02;;;17.60;85.30;;;;;;5058781;28;20064;-80
2022/04/29 00:40:44;;;;;;;1.27;1.10;;;17.50;85.30;;;;;;5066008;28;20511;-80
2022/04/29 00:43:12;;;;;;;2.00;1.25;;;17.60;85.30;;;;;;5053789;28;20551;-80
2022/04/29 00:45:40;;;;;;;1.58;1.00;;;17.50;85.30;;;;;;5058124;28;20048;-80
2022/04/29 00:48:09;;;;;;;1.17;1.00;;;17.50;85.50;;;;;;5057115;28;20040;-80
2022/04/29 00:50:37;;;;;;;2.00;1.02;;;17.50;85.90;;;;;;5055253;28;20144;-80
2022/04/29 00:53:10;;;;;;;1.65;1.15;;;17.40;86.20;;;;;;5052271;28;20064;-80
2022/04/29 00:55:40;;;;;;;1.90;1.17;;;17.40;86.50;;;;;;5052572;28;20095;-80
2022/04/29 00:58:12;;;;;;;1.83;1.38;;;17.30;87.20;;;;;;5058337;28;20044;-81
2022/04/29 01:00:41;;;;;;;1.33;1.13;;;17.20;87.40;;;;;;5058978;28;20075;-80
2022/04/29 01:03:11;;;;;;;2.30;1.15;;;17.20;87.30;;;;;;5056897;28;20115;-82
2022/04/29 01:05:41;;;;;;;3.10;1.10;;;17.20;87.40;;;;;;5060842;28;20045;-81
2022/04/29 01:08:11;;;;;;;4.55;1.08;;;17.10;87.50;;;;;;5053256;28;20036;-81
2022/04/29 01:10:39;;;;;;;1.50;1.05;;;17.10;87.70;;;;;;5054117;28;20861;-81
2022/04/29 01:13:09;;;;;;;1.40;1.10;;;17.00;87.90;;;;;;5058737;28;20051;-81
2022/04/29 01:15:37;;;;;;;2.28;1.40;;;17.00;88.20;;;;;;5071322;28;20045;-80
2022/04/29 01:18:08;;;;;;;1.52;1.10;;;17.00;88.00;;;;;;5060169;28;20052;-81
2022/04/29 01:20:38;;;;;;;1.90;1.08;;;17.10;88.20;;;;;;5054049;28;20140;-81
2022/04/29 01:23:08;;;;;;;1.50;0.98;;;17.10;88.10;;;;;;5051752;28;20044;-81
2022/04/29 01:25:37;;;;;;;1.33;1.10;;;17.00;87.90;;;;;;5051771;28;20080;-80
2022/04/29 01:28:06;;;;;;;2.03;1.30;;;17.00;88.30;;;;;;5054880;28;20044;-80
2022/04/29 01:30:39;;;;;;;2.35;1.40;;;16.90;88.20;;;;;;5052250;28;20041;-81
2022/04/29 01:33:09;;;;;;;1.98;1.08;;;17.00;88.60;;;;;;5057179;28;20712;-81
2022/04/29 01:35:37;;;;;;;3.92;1.42;;;17.00;88.50;;;;;;5050923;28;20064;-81
2022/04/29 01:38:07;;;;;;;1.88;1.10;;;17.00;88.30;;;;;;5044582;28;20415;-80
2022/04/29 01:40:35;;;;;;;2.70;1.20;;;17.00;88.60;;;;;;5045419;28;20529;-80
2022/04/29 01:43:19;;;;;;;1.92;0.98;;;17.00;88.50;;;;;;5057682;28;20092;-79
2022/04/29 01:45:47;;;;;;;2.13;0.93;;;16.90;88.90;;;;;;5057750;28;20060;-79
2022/04/29 01:48:41;;;;;;;1.35;0.95;;;16.90;89.00;;;;;;5053713;28;20057;-80
2022/04/29 01:51:13;;;;;;;1.92;1.10;;;16.80;89.30;;;;;;5049476;28;20041;-79
2022/04/29 01:53:42;;;;;;;1.70;1.33;;;16.80;89.50;;;;;;5052047;28;20056;-79
2022/04/29 01:56:11;;;;;;;2.95;1.10;;;16.80;89.80;;;;;;5056333;28;20470;-79
2022/04/29 01:58:39;;;;;;;1.67;1.10;;;16.70;90.10;;;;;;5067380;28;20044;-79
2022/04/29 02:01:09;;;;;;;2.22;1.10;;;16.70;90.20;;;;;;5067089;28;20582;-79
2022/04/29 02:03:38;;;;;;;3.80;1.10;;;16.70;90.30;;;;;;5074659;28;20056;-79
2022/04/29 02:06:06;;;;;;;1.80;1.20;;;16.60;90.40;;;;;;5052519;28;20514;-79
2022/04/29 02:08:34;;;;;;;1.35;0.93;;;16.60;90.40;;;;;;5051630;28;20863;-79
2022/04/29 02:11:03;;;;;;;1.30;0.95;;;16.60;90.50;;;;;;5055881;28;20036;-79
2022/04/29 02:13:31;;;;;;;3.35;1.20;;;16.60;90.40;;;;;;5050667;28;20049;-81
2022/04/29 02:16:25;;;;;;;1.52;1.27;;;16.70;90.30;;;;;;5051719;28;20074;-80
2022/04/29 02:18:54;;;;;;;1.77;0.90;;;16.70;90.20;;;;;;5053301;28;20146;-81
2022/04/29 02:21:22;;;;;;;1.92;0.90;;;16.70;90.20;;;;;;5047010;28;20497;-81
2022/04/29 02:23:50;;;;;;;1.48;1.20;;;16.60;90.10;;;;;;5050354;28;20044;-81
2022/04/29 02:26:20;;;;;;;1.30;1.00;;;16.60;90.30;;;;;;5056002;28;20445;-81
2022/04/29 02:28:47;;;;;;;2.45;1.20;;;16.60;90.40;;;;;;5049299;28;20069;-81
2022/04/29 02:31:15;;;;;;;1.38;1.10;;;16.60;90.60;;;;;;5056298;28;20045;-81
2022/04/29 02:33:44;;;;;;;1.50;1.10;;;16.60;90.60;;;;;;5046349;28;20477;-81
2022/04/29 02:36:12;;;;;;;1.77;0.90;;;16.60;90.70;;;;;;5064809;28;20083;-81
2022/04/29 02:38:44;;;;;;;1.45;0.98;;;16.60;90.70;;;;;;5067711;28;20114;-81
2022/04/29 02:41:12;;;;;;;2.38;1.08;;;16.60;90.80;;;;;;5054592;28;20048;-81
2022/04/29 02:43:43;;;;;;;1.75;1.00;;;16.60;90.70;;;;;;5054345;28;20045;-81
2022/04/29 02:46:11;;;;;;;3.80;1.20;;;16.60;90.90;;;;;;5065171;28;20071;-81
2022/04/29 02:48:46;;;;;;;1.85;1.02;;;16.60;91.00;;;;;;5035081;28;20498;-80
2022/04/29 02:51:15;;;;;;;1.45;1.05;;;16.60;91.10;;;;;;5068833;28;20052;-80
2022/04/29 02:53:48;;;;;;;1.63;1.35;;;16.50;91.20;;;;;;5062154;28;20041;-80
2022/04/29 02:56:18;;;;;;;2.03;1.10;;;16.50;91.50;;;;;;5068618;28;20051;-80
2022/04/29 02:59:03;;;;;;;1.95;1.10;;;16.50;91.40;;;;;;5069937;28;20048;-80
2022/04/29 03:01:31;;;;;;;2.13;1.38;;;16.50;91.30;;;;;;5048557;28;20060;-80
2022/04/29 03:03:59;;;;;;;2.67;1.23;;;16.50;91.30;;;;;;5047726;28;20098;-80
2022/04/29 03:06:27;;;;;;;4.07;1.50;;;16.50;91.90;;;;;;5045265;28;20102;-81
2022/04/29 03:08:56;;;;;;;3.75;1.80;;;16.50;92.00;;;;;;5049613;28;20044;-81
2022/04/29 03:11:24;;;;;;;1.63;1.33;;;16.40;92.40;;;;;;5054428;28;20071;-80
2022/04/29 03:13:52;;;;;;;3.03;1.60;;;16.40;92.80;;;;;;5053978;28;20040;-80
2022/04/29 03:16:22;;;;;;;1.92;1.23;;;16.40;93.00;;;;;;5049968;28;20426;-81
2022/04/29 03:18:50;;;;;;;2.80;2.03;;;16.30;93.70;;;;;;5038773;28;20447;-80
2022/04/29 03:21:18;;;;;;;3.88;1.50;;;16.10;94.10;;;;;;5045011;28;20924;-81
2022/04/29 03:23:46;;;;;;;2.95;1.40;;;16.00;95.40;;;;;;5050614;28;20518;-79
2022/04/29 03:26:14;;;;;;;1.55;1.30;;;15.90;96.10;;;;;;5055232;28;20079;-80
2022/04/29 03:28:43;;;;;;;2.53;1.70;;;15.80;96.30;;;;;;5075047;28;20552;-79
2022/04/29 03:31:12;;;;;;;2.67;1.10;;;15.90;96.30;;;;;;5072429;28;20102;-79
2022/04/29 03:34:00;;;;;;;1.83;1.10;;;15.90;94.40;;;;;;5060440;28;20066;-80
2022/04/29 03:36:28;;;;;;;2.67;1.25;;;16.00;95.00;;;;;;5049527;28;20467;-79
2022/04/29 03:38:57;;;;;;;2.95;1.85;;;16.10;94.40;;;;;;5051664;28;20765;-79
2022/04/29 03:41:25;;;;;;;2.45;1.23;;;16.10;94.30;;;;;;5053344;28;20083;-79
2022/04/29 03:44:01;;;;;;;3.00;1.20;;;16.00;93.40;;;;;;5051619;28;20063;-79
2022/04/29 03:46:33;;;;;;;2.53;1.33;;;16.00;92.60;;;;;;5067275;28;20044;-79
2022/04/29 03:49:37;;;;;;;3.00;1.25;;;16.10;92.40;;;;;;5066550;28;20554;-80
2022/04/29 03:52:20;;;;;;;1.70;1.10;;;16.10;91.80;;;;;;5072270;28;20040;-79
2022/04/29 03:54:53;;;;;;;3.10;1.30;;;16.10;91.50;;;;;;5056242;28;20072;-79
2022/04/29 03:57:23;;;;;;;2.17;1.27;;;16.10;91.60;;;;;;5043212;28;20518;-80
2022/04/29 03:59:52;;;;;;;1.90;1.10;;;16.10;91.40;;;;;;5060790;28;20044;-80
2022/04/29 04:02:22;;;;;;;2.35;1.35;;;16.10;91.30;;;;;;5052368;28;20133;-80
2022/04/29 04:04:53;;;;;;;1.58;1.40;;;16.10;91.20;;;;;;5052776;28;20041;-80
2022/04/29 04:07:22;;;;;;;2.03;1.25;;;16.10;91.10;;;;;;5059075;28;20056;-80
2022/04/29 04:10:09;;;;;;;3.25;1.38;;;16.10;91.20;;;;;;5056974;28;20047;-79
2022/04/29 04:12:39;;;;;;;3.58;1.30;;;16.00;91.30;;;;;;5070685;28;20068;-79
2022/04/29 04:15:25;;;;;;;3.78;1.75;;;16.10;91.30;;;;;;5050476;28;20468;-80
2022/04/29 04:17:54;;;;;;;2.50;1.35;;;16.10;91.20;;;;;;5057744;28;20049;-79
2022/04/29 04:20:23;;;;;;;1.70;1.20;;;16.10;91.10;;;;;;5050143;28;20095;-79
2022/04/29 04:23:00;;;;;;;3.33;1.30;;;16.10;90.80;;;;;;5056007;28;20045;-80
2022/04/29 04:25:30;;;;;;;2.22;1.10;;;16.10;90.50;;;;;;5048081;28;20052;-79
2022/04/29 04:28:00;;;;;;;1.63;1.17;;;16.10;90.50;;;;;;5046939;28;20128;-79
2022/04/29 04:30:46;;;;;;;3.83;1.50;;;16.10;90.50;;;;;;5055233;28;20175;-78
2022/04/29 04:33:18;;;;;;;1.52;1.38;;;16.20;90.60;;;;;;5059443;28;20040;-79
2022/04/29 04:35:50;;;;;;;2.13;1.50;;;16.10;90.60;;;;;;5054288;28;20135;-79
2022/04/29 04:38:19;;;;;;;1.67;1.42;;;16.20;90.80;;;;;;5055092;28;20048;-81
2022/04/29 04:40:55;;;;;;;2.13;1.40;;;16.20;90.60;;;;;;5057043;28;20041;-78
2022/04/29 04:43:24;;;;;;;2.22;1.73;;;16.20;90.60;;;;;;5060594;28;20048;-79
2022/04/29 04:45:53;;;;;;;4.97;1.65;;;16.20;90.30;;;;;;5059465;28;20048;-79
2022/04/29 04:48:41;;;;;;;2.78;1.65;;;16.30;90.20;;;;;;5059345;28;21280;-79
2022/04/29 04:51:34;;;;;;;2.97;1.90;;;16.30;90.10;;;;;;5049031;28;20140;-79
2022/04/29 04:54:08;;;;;;;4.20;1.45;;;16.40;90.00;;;;;;5055152;28;20721;-79
2022/04/29 04:56:41;;;;;;;2.83;1.60;;;16.40;89.40;;;;;;5052989;28;20041;-79
2022/04/29 04:59:09;;;;;;;4.10;1.40;;;16.50;89.30;;;;;;5056660;28;20053;-79
2022/04/29 05:01:37;;;;;;;2.50;1.33;;;16.50;89.00;;;;;;5063462;28;20040;-79
2022/04/29 05:04:09;;;;;;;4.25;1.60;;;16.50;88.70;;;;;;5053963;28;20088;-79
2022/04/29 05:06:57;;;;;;;3.08;1.63;;;16.60;88.50;;;;;;5067889;28;20097;-79
2022/04/29 05:09:25;;;;;;;2.40;1.48;;;16.60;88.40;;;;;;5057365;28;20090;-79
2022/04/29 05:11:54;;;;;;;3.00;1.50;;;16.60;88.20;;;;;;5049025;28;20646;-79
2022/04/29 05:14:54;;;;;;;1.73;1.60;;;16.70;88.10;;;;;;5073129;28;20049;-78
2022/04/29 05:17:24;;;;;;;3.15;1.60;;;16.70;88.20;;;;;;5067596;28;20052;-79
2022/04/29 05:20:12;;;;;;;2.58;1.45;;;16.70;88.40;;;;;;5055040;28;20151;-79
2022/04/29 05:22:45;;;;;;;2.65;1.80;;;16.70;88.90;;;;;;5056076;28;20048;-78
2022/04/29 05:25:14;;;;;;;3.58;2.05;;;16.70;88.60;;;;;;5049713;28;20049;-79
2022/04/29 05:28:00;;;;;;;2.60;1.70;;;16.80;88.20;;;;;;5047397;28;20124;-79
2022/04/29 05:30:48;;;;;;;5.28;2.08;;;16.80;87.80;;;;;;5054642;28;20079;-79
2022/04/29 05:33:39;;;;;;;2.95;1.83;;;16.80;87.70;;;;;;5037341;28;20085;-78
2022/04/29 05:36:26;;;;;;;3.92;2.10;;;16.90;88.10;;;;;;5052089;28;20056;-79
2022/04/29 05:42:15;;;;;;;3.13;1.73;;;17.00;88.10;;;;;;5059751;28;19924;-79
2022/04/29 05:44:44;;;;;;;4.82;1.90;;;17.00;89.00;;;;;;5058346;28;20053;-79
2022/04/29 05:47:16;;;;;;;3.60;1.70;;;17.00;88.90;;;;;;5055293;28;20058;-79
2022/04/29 05:49:47;;;;;;;3.90;1.90;;;17.10;88.60;;;;;;5047651;28;20044;-79
2022/04/29 05:52:19;;;;;;;3.67;1.65;;;17.10;89.10;;;;;;5053602;28;20052;-81
2022/04/29 05:54:49;;;;;;;3.13;2.05;;;17.10;89.30;;;;;;5052238;28;20103;-82
2022/04/29 05:57:24;;;;;;;2.78;1.95;;;17.10;89.40;;;;;;5044619;28;20041;-84
2022/04/29 05:59:52;;;;;;;5.35;1.95;;;17.10;89.30;;;;;;5056759;28;20068;-82
2022/04/29 06:02:41;;;;;;;2.92;1.92;;;17.20;89.60;;;;;;5052456;28;20481;-83
2022/04/29 06:05:12;;;;;;;2.63;2.10;;;17.20;89.70;;;;;;5058162;28;20065;-78
2022/04/29 06:07:44;;;;;;;3.20;1.92;;;17.20;89.50;;;;;;5069786;28;20072;-79
2022/04/29 06:10:22;;;;;;;2.65;1.70;;;17.30;89.60;;;;;;5047102;28;20041;-78
2022/04/29 06:12:50;;;;;;;2.45;1.85;;;17.30;89.80;;;;;;5052042;28;20049;-79
2022/04/29 06:15:27;;;;;;;2.67;1.60;;;17.40;89.60;;;;;;5070626;28;20110;-79
2022/04/29 06:18:13;;;;;;;;;;;17.40;89.50;;;;;;5055168;28;20067;-78
2022/04/29 06:21:00;;;;;;;4.18;1.58;;;17.40;89.10;;;;;;5049280;28;20041;-78
2022/04/29 06:24:01;;;;;;;3.03;1.88;;;17.50;88.90;;;;;;5045794;28;20414;-79
2022/04/29 06:26:31;;;;;;;3.20;1.80;;;17.50;88.40;;;;;;5055381;28;20099;-77
2022/04/29 06:28:59;;;;;;;2.92;1.75;;;17.50;88.20;;;;;;5060109;28;20506;-79
2022/04/29 06:31:27;;;;;;;3.13;1.55;;;17.50;88.00;;;;;;5057765;28;20056;-79
2022/04/29 06:34:14;;;;;;;3.30;1.60;;;17.60;88.10;;;;;;5051574;28;20486;-77
2022/04/29 06:36:43;;;;;;;4.35;1.70;;;17.60;88.90;;;;;;5050441;28;20485;-77
2022/04/29 06:39:12;;;;;;;2.22;1.65;;;17.70;88.70;;;;;;5048902;28;20041;-77
2022/04/29 06:42:20;;;;;;;2.65;1.50;;;17.70;88.20;;;;;;5037084;28;20566;-77
2022/04/29 06:45:16;;;;;;;2.05;1.55;;;17.70;87.90;;;;;;5004246;28;20497;-77
2022/04/29 06:48:03;;;;;;;3.35;1.65;;;17.80;88.00;;;;;;5052139;28;20149;-78
2022/04/29 06:50:51;;;;;;;4.80;2.28;;;17.80;87.10;;;;;;5052381;28;20056;-80
2022/04/29 06:53:47;;;;;;;3.50;1.48;;;17.90;87.00;;;;;;5062636;28;20052;-80
2022/04/29 06:56:21;;;;;;;2.75;1.27;;;17.90;86.20;;;;;;5055206;28;20044;-81
2022/04/29 06:58:51;;;;;;;3.17;1.77;;;17.90;86.50;;;;;;5050390;28;20048;-80
2022/04/29 07:01:21;;;;;;;4.70;1.60;;;17.90;87.10;;;;;;5051853;28;20052;-79
2022/04/29 07:03:49;;;;;;;2.40;1.60;;;18.00;87.20;;;;;;5057440;28;20049;-81
2022/04/29 07:06:17;;;;;;;2.33;1.52;;;18.10;86.20;;;;;;5052002;28;20071;-80
2022/04/29 07:08:47;;;;;;;1.98;1.50;;;18.10;86.30;;;;;;5069719;28;20144;-80
2022/04/29 07:11:33;;;;;;;2.05;1.60;;;18.20;86.70;;;;;;5061102;28;20799;-80
2022/04/29 07:14:10;;;;;;;2.85;1.38;;;18.20;86.20;;;;;;5073316;28;20451;-80
2022/04/29 07:17:04;;;;;;;1.73;1.35;;;18.30;86.20;;;;;;5046942;28;20055;-80
2022/04/29 07:19:38;;;;;;;6.57;2.13;;;18.40;86.20;;;;;;5059614;28;20139;-80
2022/04/29 07:22:26;;;;;;;2.90;1.88;;;18.40;86.60;;;;;;5046572;28;20082;-80
2022/04/29 07:24:56;;;;;;;3.25;1.60;;;18.40;85.00;;;;;;5050393;28;20140;-79
2022/04/29 07:27:25;;;;;;;3.25;1.48;;;18.40;85.20;;;;;;5049853;28;20068;-81
2022/04/29 07:29:55;;;;;;;4.03;1.52;;;18.40;86.30;;;;;;5049975;28;20040;-81
2022/04/29 07:32:34;;;;;;;2.90;1.60;;;18.40;86.40;;;;;;5058831;28;20135;-80
2022/04/29 07:44:11;;;;;;;3.25;1.90;;;18.80;86.30;;;;;;5069375;28;19933;-80
2022/04/29 07:46:45;;;;;;;2.83;1.50;;;18.80;84.80;;;;;;5047564;28;20045;-80
2022/04/29 07:49:42;;;;;;;1.90;1.35;;;18.80;85.50;;;;;;5063756;28;20060;-80
2022/04/29 07:52:17;;;;;;;1.95;1.40;;;18.90;85.10;;;;;;5048041;28;20413;-81
2022/04/29 07:54:45;;;;;;;2.92;1.52;;;18.90;84.60;;;;;;5049792;28;20134;-80
2022/04/29 07:57:13;;;;;;;2.67;1.60;;;18.90;85.40;;;;;;5032784;28;20043;-80
2022/04/29 07:59:41;;;;;;;3.38;1.30;;;19.00;84.30;;;;;;5050919;28;20057;-81
2022/04/29 08:02:33;;;;;;;1.95;1.35;;;19.00;83.80;;;;;;5045335;28;20056;-81
2022/04/29 08:05:02;;;;;;;2.75;1.55;;;19.00;84.20;;;;;;5069300;28;20457;-81
2022/04/29 08:07:32;;;;;;;2.92;1.42;;;19.00;84.30;;;;;;5043828;28;20049;-81
2022/04/29 08:10:11;;;;;;;3.10;1.65;;;19.10;84.30;;;;;;5051827;28;20072;-81
2022/04/29 08:12:39;;;;;;;2.58;1.40;;;19.10;84.00;;;;;;5061865;28;20045;-80
2022/04/29 08:15:44;;;;;;;3.75;1.60;;;19.10;83.70;;;;;;5055173;28;20053;-81
2022/04/29 08:18:33;;;;;;;2.03;1.50;;;19.10;83.80;;;;;;5062294;28;20067;-81
2022/04/29 08:21:01;;;;;;;3.78;1.50;;;19.20;83.20;;;;;;5054937;28;20080;-81
2022/04/29 08:23:29;;;;;;;5.20;1.25;;;19.20;83.20;;;;;;5049616;28;20071;-81
2022/04/29 08:25:57;;;;;;;1.65;1.25;;;19.20;83.70;;;;;;5058689;28;20540;-81
2022/04/29 08:28:28;;;;;;;2.47;1.13;;;19.30;83.70;;;;;;5047731;28;20055;-81
2022/04/29 08:30:56;;;;;;;2.25;1.17;;;19.40;84.50;;;;;;5049171;28;20129;-81
2022/04/29 08:33:40;;;;;;;2.80;1.25;;;19.40;82.30;;;;;;5053606;28;20094;-80
2022/04/29 08:36:15;;;;;;;2.40;1.20;;;19.40;81.90;;;;;;5059380;28;20666;-81
2022/04/29 08:38:47;;;;;;;2.35;1.13;;;19.50;81.80;;;;;;5037862;28;20137;-81
2022/04/29 08:41:19;;;;;;;3.55;1.23;;;19.50;81.30;;;;;;5057317;28;20391;-81
2022/04/29 08:43:48;;;;;;;1.63;1.45;;;19.50;81.10;;;;;;5055499;28;20048;-81
2022/04/29 08:46:31;;;;;;;1.77;1.30;;;19.50;82.10;;;;;;5067262;28;20406;-81
2022/04/29 08:49:05;;;;;;;3.10;1.33;;;19.60;81.90;;;;;;5066744;28;20075;-83
2022/04/29 08:51:36;;;;;;;2.55;1.10;;;19.70;82.30;;;;;;5053356;28;20501;-81
2022/04/29 08:54:04;;;;;;;4.10;1.30;;;19.80;81.20;;;;;;5056433;28;20475;-81
2022/04/29 08:59:21;;;;;;;4.57;1.33;;;19.80;81.30;;;;;;5054647;28;20059;-82
2022/04/29 09:01:49;;;;;;;2.25;1.30;;;19.80;82.10;;;;;;5056584;28;20032;-81
2022/04/29 09:04:19;;;;;;;1.52;1.10;;;19.80;81.50;;;;;;5066677;28;20642;-81
2022/04/29 09:06:47;;;;;;;1.08;0.95;;;19.90;82.40;;;;;;5047197;28;20040;-81
2022/04/29 09:09:20;;;;;;;2.22;1.27;;;20.00;82.00;;;;;;5055065;28;20445;-82
2022/04/29 09:11:48;;;;;;;3.28;1.70;;;20.10;82.80;;;;;;5051974;28;20112;-82
2022/04/29 09:14:20;;;;;;;2.83;1.38;;;20.30;81.20;;;;;;5031903;28;20566;-82
2022/04/29 09:16:49;;;;;;;5.63;1.40;;;20.40;81.10;;;;;;5050846;28;20048;-82
2022/04/29 09:19:31;;;;;;;2.17;1.20;;;20.40;82.50;;;;;;5062439;28;20055;-82
2022/04/29 09:22:05;;;;;;;1.90;1.10;;;20.50;81.10;;;;;;5068802;28;20056;-83
2022/04/29 09:24:41;;;;;;;1.52;0.90;;;20.40;80.50;;;;;;5071491;28;20052;-81
2022/04/29 09:27:54;;;;;;;2.42;1.05;;;20.40;81.00;;;;;;5069247;28;20055;-82
2022/04/29 09:30:38;;;;;;;2.05;1.30;;;20.40;81.20;;;;;;5055306;28;20690;-82
2022/04/29 09:33:30;;;;;;;3.47;1.15;;;20.40;81.40;;;;;;5044667;28;20556;-82
2022/04/29 09:36:23;;;;;;;2.28;1.40;;;20.40;80.90;;;;;;5063429;28;20048;-81
2022/04/29 09:41:38;;;;;;;3.60;1.35;;;20.60;81.60;;;;;;5054887;28;20555;-82
2022/04/29 09:44:06;;;;;;;2.85;1.42;;;20.80;80.80;;;;;;5054959;28;20076;-81
2022/04/29 09:46:38;;;;;;;2.08;1.20;;;21.00;80.80;;;;;;5065946;28;20045;-82
2022/04/29 09:49:10;;;;;;;1.83;1.00;;;20.90;80.10;;;;;;5055984;28;20052;-81
2022/04/29 09:51:49;;;;;;;1.77;1.27;;;20.90;80.20;;;;;;5050967;28;20064;-81
2022/04/29 09:54:20;;;;;;;2.20;1.00;;;20.90;80.30;;;;;;5051724;28;20048;-81
2022/04/29 09:57:04;;;;;;;3.15;1.30;;;20.80;80.40;;;;;;5061313;28;20163;-81
2022/04/29 09:59:33;;;;;;;3.17;1.23;;;20.80;80.20;;;;;;5037023;28;20044;-81
2022/04/29 10:02:01;;;;;;;3.67;1.38;;;20.80;79.90;;;;;;5045636;28;20052;-82
2022/04/29 10:04:34;;;;;;;2.10;1.10;;;20.90;79.70;;;;;;5069627;28;20048;-81
2022/04/29 10:07:06;;;;;;;1.75;1.25;;;20.90;80.30;;;;;;5056826;28;20737;-81
2022/04/29 10:09:35;;;;;;;2.45;1.20;;;21.20;81.30;;;;;;5052192;28;20502;-82
2022/04/29 10:12:05;;;;;;;1.25;1.05;;;21.40;79.20;;;;;;5044452;28;20177;-81
2022/04/29 10:14:38;;;;;;;1.50;1.30;;;21.40;78.80;;;;;;5046695;28;20079;-81
2022/04/29 10:23:06;;;;;;;1.60;1.40;;;21.50;78.80;;;;;;5055548;28;20298;-81
2022/04/29 10:25:38;;;;;;;2.80;1.55;;;21.50;79.40;;;;;;5046046;28;20526;-81
2022/04/29 10:28:08;;;;;;;3.67;1.17;;;21.60;80.30;;;;;;5052526;28;20045;-81
2022/04/29 10:30:38;;;;;;;3.88;1.48;;;21.90;79.50;;;;;;5047868;28;20048;-81
2022/04/29 10:33:10;;;;;;;2.60;1.17;;;22.00;78.40;;;;;;5049899;28;20127;-81
2022/04/29 10:35:53;;;;;;;3.05;1.20;;;21.90;79.00;;;;;;5044933;28;20036;-82
2022/04/29 10:38:26;;;;;;;3.25;1.50;;;21.90;77.80;;;;;;5052550;28;20048;-81
2022/04/29 10:41:14;;;;;;;2.75;1.70;;;21.90;78.00;;;;;;5069298;28;20049;-81
2022/04/29 10:43:46;;;;;;;2.05;1.48;;;21.80;78.00;;;;;;5049342;28;20084;-81
2022/04/29 10:46:22;;;;;;;1.58;1.02;;;21.70;78.10;;;;;;5055492;28;20075;-81
2022/04/29 10:49:24;;;;;;;2.28;1.33;;;21.80;79.60;;;;;;5052858;28;20072;-81
2022/04/29 10:52:24;;;;;;;3.03;1.33;;;22.00;77.80;;;;;;5054271;28;20043;-82
2022/04/29 10:55:21;;;;;;;1.88;1.17;;;22.00;78.60;;;;;;5052601;28;20047;-81
2022/04/29 10:57:58;;;;;;;4.43;1.33;;;22.20;79.60;;;;;;5039376;28;20062;-82
2022/04/29 11:00:28;;;;;;;1.75;1.02;;;22.40;79.30;;;;;;5054506;28;20048;-80
2022/04/29 11:03:36;;;;;;;2.35;1.20;;;22.40;77.90;;;;;;5046260;28;20076;-81
2022/04/29 11:06:09;;;;;;;4.50;1.30;;;22.50;79.20;;;;;;5062729;28;20843;-82
2022/04/29 11:08:38;;;;;;;3.53;1.13;;;22.80;80.40;;;;;;5070801;28;20084;-82
2022/04/29 11:11:08;;;;;;;2.55;1.05;;;23.00;79.70;;;;;;5055723;28;20060;-80
2022/04/29 11:14:00;;;;;;;1.40;1.05;;;23.00;78.40;;;;;;5046545;28;20051;-81
2022/04/29 11:16:52;;;;;;;2.50;1.27;;;22.90;77.80;;;;;;5045933;28;20045;-82
2022/04/29 11:19:45;;;;;;;1.40;1.17;;;22.90;78.40;;;;;;5037015;28;20059;-81
2022/04/29 11:25:06;;;;;;;1.58;1.13;;;23.50;76.30;;;;;;5048173;28;20077;-81
2022/04/29 11:28:04;;;;;;;2.58;1.13;;;23.50;76.80;;;;;;5055721;28;20041;-81
2022/04/29 11:31:00;;;;;;;3.38;1.10;;;23.40;77.00;;;;;;5039184;28;20049;-81
2022/04/29 11:33:37;;;;;;;1.50;0.88;;;23.30;77.20;;;;;;5036854;28;20048;-83
2022/04/29 11:36:07;;;;;;;1.50;1.10;;;23.30;76.70;;;;;;5049550;28;20045;-82
2022/04/29 11:38:42;;;;;;;2.08;1.10;;;23.40;76.70;;;;;;5052719;28;20527;-84
2022/04/29 11:41:17;;;;;;;3.38;1.10;;;23.50;76.50;;;;;;5054990;28;20071;-84
2022/04/29 11:43:49;;;;;;;1.88;1.20;;;23.60;76.00;;;;;;5049946;28;20443;-84
2022/04/29 11:46:18;;;;;;;2.83;1.02;;;23.60;74.90;;;;;;5050578;28;20141;-82
2022/04/29 11:48:54;;;;;;;3.08;0.95;;;23.90;76.80;;;;;;5049528;28;20156;-82
2022/04/29 11:51:22;;;;;;;2.55;1.20;;;24.00;76.90;;;;;;5061485;28;20056;-83
2022/04/29 11:53:58;;;;;;;3.22;1.27;;;23.80;77.30;;;;;;5031794;28;20445;-83
2022/04/29 11:56:35;;;;;;;2.40;1.35;;;23.70;76.60;;;;;;5058634;28;20528;-83
2022/04/29 11:59:06;;;;;;;1.50;1.17;;;23.80;75.80;;;;;;5051471;28;20045;-82
2022/04/29 12:01:34;;;;;;;1.80;1.30;;;23.90;75.00;;;;;;5052293;28;20049;-83
2022/04/29 12:04:03;;;;;;;1.85;1.10;;;23.90;75.60;;;;;;5064413;28;20137;-82
2022/04/29 12:06:31;;;;;;;1.75;1.27;;;24.00;75.90;;;;;;5061363;28;20494;-81
2022/04/29 12:08:59;;;;;;;2.28;1.30;;;24.20;75.80;;;;;;5048840;28;20048;-81
2022/04/29 12:11:30;;;;;;;1.73;1.10;;;24.20;76.10;;;;;;5076375;28;20052;-82
2022/04/29 12:14:16;;;;;;;1.40;1.00;;;24.50;76.40;;;;;;5054383;28;20044;-83
2022/04/29 12:16:45;;;;;;;1.83;1.13;;;24.50;77.60;;;;;;5049885;28;20060;-84
2022/04/29 12:19:17;;;;;;;1.25;1.13;;;24.30;75.50;;;;;;5041390;28;20063;-83
2022/04/29 12:21:54;;;;;;;1.98;1.00;;;24.10;75.80;;;;;;5055814;28;20526;-82
2022/04/29 12:24:22;;;;;;;1.20;1.00;;;24.00;75.70;;;;;;5059634;28;20041;-83
2022/04/29 12:27:06;;;;;;;1.75;1.08;;;23.90;75.50;;;;;;5073813;28;20726;-83
2022/04/29 12:29:39;;;;;;;3.63;1.13;;;24.00;75.80;;;;;;5064983;28;20049;-83
2022/04/29 12:35:13;;;;;;;2.23;1.03;;;24.30;76.10;;;;;;5056568;28;20060;-83
2022/04/29 12:37:50;;;;;;;2.00;1.23;;;24.50;75.40;;;;;;5048758;28;20036;-82
2022/04/29 12:40:38;;;;;;;3.33;1.27;;;24.50;75.40;;;;;;5067270;28;20084;-82
2022/04/29 12:43:10;;;;;;;1.67;0.98;;;24.40;76.40;;;;;;5066720;28;20107;-82
2022/04/29 12:45:40;;;;;;;2.92;1.48;;;24.30;77.20;;;;;;5052887;28;20060;-82
2022/04/29 12:48:28;;;;;;;2.42;1.52;;;24.40;77.20;;;;;;5064539;28;20041;-82
2022/04/29 12:50:57;;;;;;;3.05;1.33;;;24.50;76.90;;;;;;5054974;28;20509;-82
2022/04/29 12:53:30;;;;;;;5.05;1.30;;;24.60;77.20;;;;;;5055750;28;20036;-82
2022/04/29 12:55:58;;;;;;;2.95;1.60;;;24.70;77.30;;;;;;5061584;28;20051;-82
2022/04/29 12:58:30;;;;;;;2.60;1.40;;;24.80;77.50;;;;;;5060292;28;20045;-82
2022/04/29 13:01:06;;;;;;;1.77;1.40;;;24.80;77.50;;;;;;5047020;28;20044;-82
2022/04/29 13:03:51;;;;;;;2.42;1.52;;;24.60;77.10;;;;;;5036184;28;20067;-82
2022/04/29 13:06:51;;;;;;;3.42;1.58;;;24.50;78.00;;;;;;5028018;28;20523;-82
2022/04/29 13:09:19;;;;;;;2.00;1.25;;;24.50;78.30;;;;;;5069334;28;20139;-82
2022/04/29 13:11:47;;;;;;;3.53;1.55;;;24.40;78.30;;;;;;5061169;28;20040;-83
2022/04/29 13:14:35;;;;;;;2.53;1.40;;;24.60;79.90;;;;;;5042494;28;20048;-82
2022/04/29 13:17:05;;;;;;;4.78;1.17;;;25.00;78.20;;;;;;5052497;28;20044;-82
2022/04/29 13:19:32;;;;;;;2.50;1.38;;;25.00;78.60;;;;;;5055451;28;20459;-83
2022/04/29 13:22:00;;;;;;;2.33;1.10;;;25.10;78.10;;;;;;5071696;28;20527;-82
2022/04/29 13:24:35;;;;;;;1.55;1.20;;;25.30;78.50;;;;;;5062897;28;20083;-83
2022/04/29 13:27:04;;;;;;;1.55;1.13;;;25.50;76.70;;;;;;5052934;28;20095;-82
2022/04/29 13:29:32;;;;;;;2.15;1.20;;;25.50;76.20;;;;;;5042423;28;20453;-83
2022/04/29 13:32:00;;;;;;;2.45;1.20;;;25.40;75.70;;;;;;5057800;28;20051;-82
2022/04/29 13:34:29;;;;;;;3.17;1.27;;;25.60;76.30;;;;;;5071732;28;20124;-82
2022/04/29 13:36:57;;;;;;;1.80;1.10;;;25.80;75.50;;;;;;5050947;28;20099;-82
2022/04/29 13:39:25;;;;;;;2.30;1.30;;;25.90;74.90;;;;;;5049450;28;20041;-84
2022/04/29 13:42:19;;;;;;;1.13;1.10;;;26.00;74.40;;;;;;5051769;28;20059;-83
2022/04/29 13:44:47;;;;;;;3.53;1.00;;;26.10;74.70;;;;;;5074484;28;20514;-83
2022/04/29 13:47:16;;;;;;;3.53;1.10;;;26.30;74.70;;;;;;5054765;28;20076;-83
2022/04/29 13:50:16;;;;;;;3.80;1.17;;;26.30;74.40;;;;;;5050379;28;20045;-83
2022/04/29 13:55:31;;;;;;;1.58;1.13;;;26.70;73.40;;;;;;5071377;28;20391;-82
2022/04/29 13:57:59;;;;;;;1.48;1.10;;;27.00;74.30;;;;;;5048181;28;20098;-83